sensor_id;sensor_type;location;lat;lon;timestamp;P1;durP1;ratioP1;P2;durP2;ratioP2
23802;SDS011;12082;51.786;6.018;2023-11-19T00:01:55;194.90;;;184.27;;
23802;SDS011;12082;51.786;6.018;2023-11-19T00:04:21;199.57;;;188.50;;
23802;SDS011;12082;51.786;6.018;2023-11-19T00:06:47;204.50;;;193.27;;
23802;SDS011;12082;51.786;6.018;2023-11-19T00:09:13;207.10;;;195.43;;
23802;SDS011;12082;51.786;6.018;2023-11-19T00:11:40;207.93;;;196.30;;
23802;SDS011;12082;51.786;6.018;2023-11-19T00:14:05;212.90;;;199.10;;
23802;SDS011;12082;51.786;6.018;2023-11-19T00:16:33;193.87;;;183.20;;
23802;SDS011;12082;51.786;6.018;2023-11-19T00:18:59;212.93;;;201.20;;
23802;SDS011;12082;51.786;6.018;2023-11-19T00:21:25;196.30;;;185.53;;
23802;SDS011;12082;51.786;6.018;2023-11-19T00:23:53;190.63;;;180.07;;
23802;SDS011;12082;51.786;6.018;2023-11-19T00:26:19;184.20;;;173.97;;
23802;SDS011;12082;51.786;6.018;2023-11-19T00:28:44;198.43;;;187.83;;
23802;SDS011;12082;51.786;6.018;2023-11-19T00:31:10;210.90;;;199.37;;
23802;SDS011;12082;51.786;6.018;2023-11-19T00:33:36;225.87;;;214.13;;
23802;SDS011;12082;51.786;6.018;2023-11-19T00:36:02;238.40;;;226.03;;
23802;SDS011;12082;51.786;6.018;2023-11-19T00:38:28;259.83;;;246.43;;
23802;SDS011;12082;51.786;6.018;2023-11-19T00:40:57;276.60;;;262.17;;
23802;SDS011;12082;51.786;6.018;2023-11-19T00:43:22;287.30;;;272.20;;
23802;SDS011;12082;51.786;6.018;2023-11-19T00:45:48;280.77;;;265.97;;
23802;SDS011;12082;51.786;6.018;2023-11-19T00:48:16;301.63;;;285.17;;
23802;SDS011;12082;51.786;6.018;2023-11-19T00:50:42;276.67;;;261.77;;
23802;SDS011;12082;51.786;6.018;2023-11-19T00:53:10;289.37;;;272.03;;
23802;SDS011;12082;51.786;6.018;2023-11-19T00:55:35;220.10;;;208.27;;
23802;SDS011;12082;51.786;6.018;2023-11-19T00:58:01;183.43;;;172.07;;
23802;SDS011;12082;51.786;6.018;2023-11-19T01:00:28;165.87;;;156.60;;
23802;SDS011;12082;51.786;6.018;2023-11-19T01:02:53;193.43;;;183.77;;
23802;SDS011;12082;51.786;6.018;2023-11-19T01:05:22;268.90;;;255.33;;
23802;SDS011;12082;51.786;6.018;2023-11-19T01:07:48;354.20;;;335.47;;
23802;SDS011;12082;51.786;6.018;2023-11-19T01:10:13;370.77;;;351.33;;
23802;SDS011;12082;51.786;6.018;2023-11-19T01:12:40;257.70;;;242.87;;
23802;SDS011;12082;51.786;6.018;2023-11-19T01:15:07;211.90;;;199.53;;
23802;SDS011;12082;51.786;6.018;2023-11-19T01:17:33;303.67;;;287.17;;
23802;SDS011;12082;51.786;6.018;2023-11-19T01:19:58;390.53;;;369.03;;
23802;SDS011;12082;51.786;6.018;2023-11-19T01:22:24;357.87;;;338.87;;
23802;SDS011;12082;51.786;6.018;2023-11-19T01:24:49;298.33;;;281.93;;
23802;SDS011;12082;51.786;6.018;2023-11-19T01:27:17;296.07;;;279.73;;
23802;SDS011;12082;51.786;6.018;2023-11-19T01:29:42;288.37;;;272.30;;
23802;SDS011;12082;51.786;6.018;2023-11-19T01:32:08;333.33;;;314.57;;
23802;SDS011;12082;51.786;6.018;2023-11-19T01:34:33;360.73;;;339.37;;
23802;SDS011;12082;51.786;6.018;2023-11-19T01:36:59;362.67;;;341.90;;
23802;SDS011;12082;51.786;6.018;2023-11-19T01:39:25;340.90;;;321.83;;
23802;SDS011;12082;51.786;6.018;2023-11-19T01:41:51;372.43;;;351.53;;
23802;SDS011;12082;51.786;6.018;2023-11-19T01:44:16;303.57;;;286.70;;
23802;SDS011;12082;51.786;6.018;2023-11-19T01:46:44;392.43;;;370.40;;
23802;SDS011;12082;51.786;6.018;2023-11-19T01:49:13;369.10;;;346.77;;
23802;SDS011;12082;51.786;6.018;2023-11-19T01:51:40;344.53;;;324.70;;
23802;SDS011;12082;51.786;6.018;2023-11-19T01:54:06;328.83;;;310.30;;
23802;SDS011;12082;51.786;6.018;2023-11-19T01:56:33;328.93;;;309.93;;
23802;SDS011;12082;51.786;6.018;2023-11-19T01:58:59;398.60;;;374.93;;
23802;SDS011;12082;51.786;6.018;2023-11-19T02:01:25;372.30;;;348.00;;
23802;SDS011;12082;51.786;6.018;2023-11-19T02:03:52;357.60;;;335.87;;
23802;SDS011;12082;51.786;6.018;2023-11-19T02:06:18;290.43;;;273.13;;
23802;SDS011;12082;51.786;6.018;2023-11-19T02:08:43;280.77;;;263.30;;
23802;SDS011;12082;51.786;6.018;2023-11-19T02:11:09;287.77;;;269.53;;
23802;SDS011;12082;51.786;6.018;2023-11-19T02:13:36;281.17;;;264.03;;
23802;SDS011;12082;51.786;6.018;2023-11-19T02:16:03;278.10;;;261.87;;
23802;SDS011;12082;51.786;6.018;2023-11-19T02:18:29;251.77;;;235.87;;
23802;SDS011;12082;51.786;6.018;2023-11-19T02:20:58;236.77;;;224.07;;
23802;SDS011;12082;51.786;6.018;2023-11-19T02:23:26;267.03;;;252.30;;
23802;SDS011;12082;51.786;6.018;2023-11-19T02:28:45;258.60;;;245.20;;
23802;SDS011;12082;51.786;6.018;2023-11-19T02:31:11;270.93;;;256.87;;
23802;SDS011;12082;51.786;6.018;2023-11-19T02:33:37;270.47;;;255.23;;
23802;SDS011;12082;51.786;6.018;2023-11-19T02:36:04;272.77;;;257.83;;
23802;SDS011;12082;51.786;6.018;2023-11-19T02:38:30;260.33;;;246.00;;
23802;SDS011;12082;51.786;6.018;2023-11-19T02:40:56;269.17;;;254.03;;
23802;SDS011;12082;51.786;6.018;2023-11-19T02:43:22;255.67;;;241.03;;
23802;SDS011;12082;51.786;6.018;2023-11-19T02:45:48;257.57;;;242.73;;
23802;SDS011;12082;51.786;6.018;2023-11-19T02:48:13;270.40;;;254.67;;
23802;SDS011;12082;51.786;6.018;2023-11-19T02:50:41;246.00;;;232.40;;
23802;SDS011;12082;51.786;6.018;2023-11-19T02:53:07;278.77;;;262.50;;
23802;SDS011;12082;51.786;6.018;2023-11-19T02:55:32;274.83;;;259.13;;
23802;SDS011;12082;51.786;6.018;2023-11-19T02:58:02;296.27;;;278.67;;
23802;SDS011;12082;51.786;6.018;2023-11-19T03:00:34;307.17;;;289.57;;
23802;SDS011;12082;51.786;6.018;2023-11-19T03:03:12;322.03;;;302.20;;
23802;SDS011;12082;51.786;6.018;2023-11-19T03:05:47;308.57;;;289.57;;
23802;SDS011;12082;51.786;6.018;2023-11-19T03:08:16;311.97;;;293.00;;
23802;SDS011;12082;51.786;6.018;2023-11-19T03:10:42;307.23;;;288.23;;
23802;SDS011;12082;51.786;6.018;2023-11-19T03:13:11;294.47;;;275.73;;
23802;SDS011;12082;51.786;6.018;2023-11-19T03:15:41;300.90;;;281.90;;
23802;SDS011;12082;51.786;6.018;2023-11-19T03:18:07;301.23;;;282.13;;
23802;SDS011;12082;51.786;6.018;2023-11-19T03:20:33;289.17;;;271.67;;
23802;SDS011;12082;51.786;6.018;2023-11-19T03:22:59;270.00;;;254.03;;
23802;SDS011;12082;51.786;6.018;2023-11-19T03:25:26;260.83;;;245.50;;
23802;SDS011;12082;51.786;6.018;2023-11-19T03:27:58;266.73;;;250.43;;
23802;SDS011;12082;51.786;6.018;2023-11-19T03:30:23;254.17;;;238.33;;
23802;SDS011;12082;51.786;6.018;2023-11-19T03:32:49;272.07;;;255.70;;
23802;SDS011;12082;51.786;6.018;2023-11-19T03:35:15;281.93;;;265.10;;
23802;SDS011;12082;51.786;6.018;2023-11-19T03:37:41;250.37;;;235.47;;
23802;SDS011;12082;51.786;6.018;2023-11-19T03:40:06;242.77;;;228.47;;
23802;SDS011;12082;51.786;6.018;2023-11-19T03:42:32;250.77;;;235.53;;
23802;SDS011;12082;51.786;6.018;2023-11-19T03:44:58;231.97;;;217.23;;
23802;SDS011;12082;51.786;6.018;2023-11-19T03:47:24;267.67;;;251.27;;
23802;SDS011;12082;51.786;6.018;2023-11-19T03:49:50;268.37;;;251.83;;
23802;SDS011;12082;51.786;6.018;2023-11-19T03:52:16;267.23;;;250.60;;
23802;SDS011;12082;51.786;6.018;2023-11-19T03:54:42;271.40;;;253.23;;
23802;SDS011;12082;51.786;6.018;2023-11-19T03:57:08;270.13;;;253.60;;
23802;SDS011;12082;51.786;6.018;2023-11-19T03:59:35;257.67;;;241.93;;
23802;SDS011;12082;51.786;6.018;2023-11-19T04:02:01;258.27;;;242.60;;
23802;SDS011;12082;51.786;6.018;2023-11-19T04:04:27;243.80;;;228.20;;
23802;SDS011;12082;51.786;6.018;2023-11-19T04:06:54;256.13;;;240.93;;
23802;SDS011;12082;51.786;6.018;2023-11-19T04:09:20;260.57;;;245.07;;
23802;SDS011;12082;51.786;6.018;2023-11-19T04:11:46;249.07;;;234.03;;
23802;SDS011;12082;51.786;6.018;2023-11-19T04:14:12;278.07;;;261.63;;
23802;SDS011;12082;51.786;6.018;2023-11-19T04:16:38;248.67;;;233.63;;
23802;SDS011;12082;51.786;6.018;2023-11-19T04:19:04;242.57;;;227.83;;
23802;SDS011;12082;51.786;6.018;2023-11-19T04:21:30;251.67;;;235.30;;
23802;SDS011;12082;51.786;6.018;2023-11-19T04:23:55;270.87;;;254.43;;
23802;SDS011;12082;51.786;6.018;2023-11-19T04:26:21;260.50;;;242.93;;
23802;SDS011;12082;51.786;6.018;2023-11-19T04:28:47;290.67;;;273.03;;
23802;SDS011;12082;51.786;6.018;2023-11-19T04:31:14;287.23;;;269.90;;
23802;SDS011;12082;51.786;6.018;2023-11-19T04:33:43;267.63;;;251.33;;
23802;SDS011;12082;51.786;6.018;2023-11-19T04:36:12;251.43;;;236.13;;
23802;SDS011;12082;51.786;6.018;2023-11-19T04:38:39;281.20;;;263.87;;
23802;SDS011;12082;51.786;6.018;2023-11-19T04:41:05;265.87;;;250.13;;
23802;SDS011;12082;51.786;6.018;2023-11-19T04:43:31;262.20;;;243.40;;
23802;SDS011;12082;51.786;6.018;2023-11-19T04:45:57;258.10;;;243.13;;
23802;SDS011;12082;51.786;6.018;2023-11-19T04:48:23;269.73;;;252.70;;
23802;SDS011;12082;51.786;6.018;2023-11-19T04:50:49;260.73;;;245.47;;
23802;SDS011;12082;51.786;6.018;2023-11-19T04:53:17;268.20;;;252.40;;
23802;SDS011;12082;51.786;6.018;2023-11-19T04:55:43;278.17;;;262.03;;
23802;SDS011;12082;51.786;6.018;2023-11-19T04:58:08;283.33;;;266.73;;
23802;SDS011;12082;51.786;6.018;2023-11-19T05:00:34;281.03;;;263.83;;
23802;SDS011;12082;51.786;6.018;2023-11-19T05:02:59;279.23;;;262.83;;
23802;SDS011;12082;51.786;6.018;2023-11-19T05:05:25;283.97;;;266.37;;
23802;SDS011;12082;51.786;6.018;2023-11-19T05:07:50;265.60;;;249.80;;
23802;SDS011;12082;51.786;6.018;2023-11-19T05:10:16;271.90;;;255.07;;
23802;SDS011;12082;51.786;6.018;2023-11-19T05:12:42;288.03;;;269.90;;
23802;SDS011;12082;51.786;6.018;2023-11-19T05:15:07;270.23;;;253.50;;
23802;SDS011;12082;51.786;6.018;2023-11-19T05:17:33;266.03;;;250.37;;
23802;SDS011;12082;51.786;6.018;2023-11-19T05:19:59;285.97;;;269.37;;
23802;SDS011;12082;51.786;6.018;2023-11-19T05:22:24;267.37;;;251.83;;
23802;SDS011;12082;51.786;6.018;2023-11-19T05:24:51;257.07;;;242.40;;
23802;SDS011;12082;51.786;6.018;2023-11-19T05:27:16;252.57;;;237.60;;
23802;SDS011;12082;51.786;6.018;2023-11-19T05:29:42;253.80;;;239.60;;
23802;SDS011;12082;51.786;6.018;2023-11-19T05:32:09;257.30;;;242.20;;
23802;SDS011;12082;51.786;6.018;2023-11-19T05:34:35;257.07;;;242.87;;
23802;SDS011;12082;51.786;6.018;2023-11-19T05:37:00;259.37;;;244.80;;
23802;SDS011;12082;51.786;6.018;2023-11-19T05:39:27;255.33;;;240.67;;
23802;SDS011;12082;51.786;6.018;2023-11-19T05:41:53;243.77;;;229.97;;
23802;SDS011;12082;51.786;6.018;2023-11-19T05:44:18;237.77;;;225.00;;
23802;SDS011;12082;51.786;6.018;2023-11-19T05:46:44;247.40;;;234.10;;
23802;SDS011;12082;51.786;6.018;2023-11-19T05:49:10;237.33;;;222.87;;
23802;SDS011;12082;51.786;6.018;2023-11-19T05:51:39;251.87;;;237.80;;
23802;SDS011;12082;51.786;6.018;2023-11-19T05:54:09;246.20;;;231.80;;
23802;SDS011;12082;51.786;6.018;2023-11-19T05:56:35;258.43;;;243.93;;
23802;SDS011;12082;51.786;6.018;2023-11-19T05:59:01;256.83;;;242.67;;
23802;SDS011;12082;51.786;6.018;2023-11-19T06:01:29;257.97;;;243.97;;
23802;SDS011;12082;51.786;6.018;2023-11-19T06:03:54;265.77;;;250.90;;
23802;SDS011;12082;51.786;6.018;2023-11-19T06:06:20;271.73;;;256.67;;
23802;SDS011;12082;51.786;6.018;2023-11-19T06:08:45;265.43;;;249.43;;
23802;SDS011;12082;51.786;6.018;2023-11-19T06:11:11;256.93;;;242.13;;
23802;SDS011;12082;51.786;6.018;2023-11-19T06:13:42;268.77;;;254.00;;
23802;SDS011;12082;51.786;6.018;2023-11-19T06:16:09;275.27;;;258.03;;
23802;SDS011;12082;51.786;6.018;2023-11-19T06:18:34;285.43;;;268.73;;
23802;SDS011;12082;51.786;6.018;2023-11-19T06:21:01;295.17;;;277.67;;
23802;SDS011;12082;51.786;6.018;2023-11-19T06:23:27;316.10;;;297.27;;
23802;SDS011;12082;51.786;6.018;2023-11-19T06:25:53;300.20;;;282.30;;
23802;SDS011;12082;51.786;6.018;2023-11-19T06:28:18;296.67;;;278.90;;
23802;SDS011;12082;51.786;6.018;2023-11-19T06:30:44;338.10;;;317.40;;
23802;SDS011;12082;51.786;6.018;2023-11-19T06:33:12;302.03;;;284.03;;
23802;SDS011;12082;51.786;6.018;2023-11-19T06:35:38;330.50;;;309.83;;
23802;SDS011;12082;51.786;6.018;2023-11-19T06:38:03;317.13;;;298.03;;
23802;SDS011;12082;51.786;6.018;2023-11-19T06:40:33;319.87;;;300.27;;
23802;SDS011;12082;51.786;6.018;2023-11-19T06:43:02;314.57;;;295.50;;
23802;SDS011;12082;51.786;6.018;2023-11-19T06:45:33;322.60;;;302.77;;
23802;SDS011;12082;51.786;6.018;2023-11-19T06:48:02;316.80;;;297.33;;
23802;SDS011;12082;51.786;6.018;2023-11-19T06:50:32;315.63;;;296.53;;
23802;SDS011;12082;51.786;6.018;2023-11-19T06:52:58;300.27;;;281.67;;
23802;SDS011;12082;51.786;6.018;2023-11-19T06:55:23;321.57;;;301.63;;
23802;SDS011;12082;51.786;6.018;2023-11-19T06:57:49;330.70;;;310.57;;
23802;SDS011;12082;51.786;6.018;2023-11-19T07:00:15;300.93;;;280.70;;
23802;SDS011;12082;51.786;6.018;2023-11-19T07:02:40;314.50;;;295.10;;
23802;SDS011;12082;51.786;6.018;2023-11-19T07:05:06;308.90;;;289.73;;
23802;SDS011;12082;51.786;6.018;2023-11-19T07:07:33;316.73;;;297.60;;
23802;SDS011;12082;51.786;6.018;2023-11-19T07:09:58;307.40;;;288.97;;
23802;SDS011;12082;51.786;6.018;2023-11-19T07:12:24;292.23;;;274.53;;
23802;SDS011;12082;51.786;6.018;2023-11-19T07:14:51;313.57;;;294.23;;
23802;SDS011;12082;51.786;6.018;2023-11-19T07:17:18;318.23;;;298.43;;
23802;SDS011;12082;51.786;6.018;2023-11-19T07:19:45;343.73;;;321.87;;
23802;SDS011;12082;51.786;6.018;2023-11-19T07:22:11;282.90;;;265.87;;
23802;SDS011;12082;51.786;6.018;2023-11-19T07:24:38;325.67;;;305.17;;
23802;SDS011;12082;51.786;6.018;2023-11-19T07:27:05;338.13;;;317.00;;
23802;SDS011;12082;51.786;6.018;2023-11-19T07:29:31;337.77;;;316.97;;
23802;SDS011;12082;51.786;6.018;2023-11-19T07:31:57;308.60;;;289.97;;
23802;SDS011;12082;51.786;6.018;2023-11-19T07:34:22;296.83;;;277.87;;
23802;SDS011;12082;51.786;6.018;2023-11-19T07:36:49;346.33;;;323.87;;
23802;SDS011;12082;51.786;6.018;2023-11-19T07:39:15;326.53;;;304.93;;
23802;SDS011;12082;51.786;6.018;2023-11-19T07:41:40;323.03;;;301.13;;
23802;SDS011;12082;51.786;6.018;2023-11-19T07:44:06;314.93;;;295.73;;
23802;SDS011;12082;51.786;6.018;2023-11-19T07:46:32;331.43;;;310.73;;
23802;SDS011;12082;51.786;6.018;2023-11-19T07:48:58;322.20;;;302.03;;
23802;SDS011;12082;51.786;6.018;2023-11-19T07:51:23;320.43;;;300.47;;
23802;SDS011;12082;51.786;6.018;2023-11-19T07:53:49;337.87;;;316.90;;
23802;SDS011;12082;51.786;6.018;2023-11-19T07:56:14;314.10;;;294.27;;
23802;SDS011;12082;51.786;6.018;2023-11-19T07:58:40;348.77;;;326.60;;
23802;SDS011;12082;51.786;6.018;2023-11-19T08:01:06;336.80;;;315.33;;
23802;SDS011;12082;51.786;6.018;2023-11-19T08:03:31;314.13;;;294.47;;
23802;SDS011;12082;51.786;6.018;2023-11-19T08:05:59;351.67;;;328.30;;
23802;SDS011;12082;51.786;6.018;2023-11-19T08:08:25;334.33;;;313.17;;
23802;SDS011;12082;51.786;6.018;2023-11-19T08:10:50;342.23;;;320.67;;
23802;SDS011;12082;51.786;6.018;2023-11-19T08:13:17;332.60;;;311.23;;
23802;SDS011;12082;51.786;6.018;2023-11-19T08:15:43;298.97;;;280.73;;
23802;SDS011;12082;51.786;6.018;2023-11-19T08:18:08;291.23;;;271.93;;
23802;SDS011;12082;51.786;6.018;2023-11-19T08:20:34;311.23;;;292.37;;
23802;SDS011;12082;51.786;6.018;2023-11-19T08:23:01;288.73;;;271.57;;
23802;SDS011;12082;51.786;6.018;2023-11-19T08:25:28;313.47;;;294.50;;
23802;SDS011;12082;51.786;6.018;2023-11-19T08:27:54;333.50;;;313.30;;
23802;SDS011;12082;51.786;6.018;2023-11-19T08:30:19;312.87;;;293.60;;
23802;SDS011;12082;51.786;6.018;2023-11-19T08:32:45;316.07;;;297.40;;
23802;SDS011;12082;51.786;6.018;2023-11-19T08:35:11;328.20;;;308.10;;
23802;SDS011;12082;51.786;6.018;2023-11-19T08:37:36;305.60;;;288.13;;
23802;SDS011;12082;51.786;6.018;2023-11-19T08:40:02;309.20;;;291.10;;
23802;SDS011;12082;51.786;6.018;2023-11-19T08:42:29;316.53;;;298.60;;
23802;SDS011;12082;51.786;6.018;2023-11-19T08:44:55;313.33;;;295.40;;
23802;SDS011;12082;51.786;6.018;2023-11-19T08:47:21;331.80;;;312.70;;
23802;SDS011;12082;51.786;6.018;2023-11-19T08:49:47;313.40;;;295.57;;
23802;SDS011;12082;51.786;6.018;2023-11-19T08:52:16;334.47;;;314.20;;
23802;SDS011;12082;51.786;6.018;2023-11-19T08:54:42;323.03;;;303.83;;
23802;SDS011;12082;51.786;6.018;2023-11-19T08:57:08;327.30;;;308.67;;
23802;SDS011;12082;51.786;6.018;2023-11-19T08:59:34;335.47;;;316.03;;
23802;SDS011;12082;51.786;6.018;2023-11-19T09:02:00;324.07;;;305.47;;
23802;SDS011;12082;51.786;6.018;2023-11-19T09:04:26;329.23;;;310.53;;
23802;SDS011;12082;51.786;6.018;2023-11-19T09:06:52;335.40;;;316.00;;
23802;SDS011;12082;51.786;6.018;2023-11-19T09:09:18;339.57;;;319.50;;
23802;SDS011;12082;51.786;6.018;2023-11-19T09:11:43;337.00;;;318.10;;
23802;SDS011;12082;51.786;6.018;2023-11-19T09:14:09;348.77;;;328.80;;
23802;SDS011;12082;51.786;6.018;2023-11-19T09:16:35;331.23;;;312.50;;
23802;SDS011;12082;51.786;6.018;2023-11-19T09:19:00;315.27;;;297.37;;
23802;SDS011;12082;51.786;6.018;2023-11-19T09:21:27;324.40;;;305.83;;
23802;SDS011;12082;51.786;6.018;2023-11-19T09:23:57;337.20;;;318.53;;
23802;SDS011;12082;51.786;6.018;2023-11-19T09:26:22;341.37;;;322.20;;
23802;SDS011;12082;51.786;6.018;2023-11-19T09:28:48;339.97;;;321.67;;
23802;SDS011;12082;51.786;6.018;2023-11-19T09:31:14;353.60;;;334.20;;
23802;SDS011;12082;51.786;6.018;2023-11-19T09:33:40;368.20;;;348.53;;
23802;SDS011;12082;51.786;6.018;2023-11-19T09:36:06;363.30;;;343.57;;
23802;SDS011;12082;51.786;6.018;2023-11-19T09:38:32;362.10;;;342.27;;
23802;SDS011;12082;51.786;6.018;2023-11-19T09:40:58;365.73;;;345.57;;
23802;SDS011;12082;51.786;6.018;2023-11-19T09:43:25;365.97;;;346.13;;
23802;SDS011;12082;51.786;6.018;2023-11-19T09:45:53;360.97;;;339.73;;
23802;SDS011;12082;51.786;6.018;2023-11-19T09:48:21;368.63;;;348.20;;
23802;SDS011;12082;51.786;6.018;2023-11-19T09:50:49;369.60;;;349.13;;
23802;SDS011;12082;51.786;6.018;2023-11-19T09:53:16;372.70;;;352.13;;
23802;SDS011;12082;51.786;6.018;2023-11-19T09:55:42;359.27;;;339.97;;
23802;SDS011;12082;51.786;6.018;2023-11-19T09:58:08;352.53;;;333.67;;
23802;SDS011;12082;51.786;6.018;2023-11-19T10:00:36;347.90;;;329.70;;
23802;SDS011;12082;51.786;6.018;2023-11-19T10:03:02;357.83;;;338.60;;
23802;SDS011;12082;51.786;6.018;2023-11-19T10:05:32;374.90;;;354.80;;
23802;SDS011;12082;51.786;6.018;2023-11-19T10:07:57;360.27;;;340.40;;
23802;SDS011;12082;51.786;6.018;2023-11-19T10:10:23;359.13;;;340.13;;
23802;SDS011;12082;51.786;6.018;2023-11-19T10:12:50;352.00;;;333.27;;
23802;SDS011;12082;51.786;6.018;2023-11-19T10:15:25;358.63;;;339.37;;
23802;SDS011;12082;51.786;6.018;2023-11-19T10:17:52;389.20;;;368.07;;
23802;SDS011;12082;51.786;6.018;2023-11-19T10:20:21;369.37;;;349.63;;
23802;SDS011;12082;51.786;6.018;2023-11-19T10:22:47;384.20;;;363.70;;
23802;SDS011;12082;51.786;6.018;2023-11-19T10:25:25;372.83;;;352.40;;
23802;SDS011;12082;51.786;6.018;2023-11-19T10:27:52;380.33;;;360.00;;
23802;SDS011;12082;51.786;6.018;2023-11-19T10:30:22;373.63;;;353.87;;
23802;SDS011;12082;51.786;6.018;2023-11-19T10:33:02;379.87;;;359.50;;
23802;SDS011;12082;51.786;6.018;2023-11-19T10:35:31;390.83;;;369.40;;
23802;SDS011;12082;51.786;6.018;2023-11-19T10:38:01;373.73;;;353.57;;
23802;SDS011;12082;51.786;6.018;2023-11-19T10:40:42;386.07;;;365.37;;
23802;SDS011;12082;51.786;6.018;2023-11-19T10:43:08;397.37;;;375.63;;
23802;SDS011;12082;51.786;6.018;2023-11-19T10:45:34;382.87;;;362.47;;
23802;SDS011;12082;51.786;6.018;2023-11-19T10:48:01;398.20;;;374.17;;
23802;SDS011;12082;51.786;6.018;2023-11-19T10:50:31;393.00;;;372.03;;
23802;SDS011;12082;51.786;6.018;2023-11-19T10:52:57;386.47;;;365.93;;
23802;SDS011;12082;51.786;6.018;2023-11-19T10:55:32;385.50;;;365.10;;
23802;SDS011;12082;51.786;6.018;2023-11-19T10:58:12;370.43;;;350.93;;
23802;SDS011;12082;51.786;6.018;2023-11-19T11:00:45;376.33;;;356.23;;
23802;SDS011;12082;51.786;6.018;2023-11-19T11:03:18;461.13;;;432.20;;
23802;SDS011;12082;51.786;6.018;2023-11-19T11:05:48;397.37;;;376.40;;
23802;SDS011;12082;51.786;6.018;2023-11-19T11:08:17;366.87;;;347.63;;
23802;SDS011;12082;51.786;6.018;2023-11-19T11:10:54;375.40;;;355.10;;
23802;SDS011;12082;51.786;6.018;2023-11-19T11:13:24;371.30;;;351.13;;
23802;SDS011;12082;51.786;6.018;2023-11-19T11:15:54;368.27;;;348.47;;
23802;SDS011;12082;51.786;6.018;2023-11-19T11:18:22;393.70;;;372.87;;
23802;SDS011;12082;51.786;6.018;2023-11-19T11:20:49;373.50;;;353.27;;
23802;SDS011;12082;51.786;6.018;2023-11-19T11:26:02;389.67;;;368.77;;
23802;SDS011;12082;51.786;6.018;2023-11-19T11:39:58;393.07;;;370.70;;
23802;SDS011;12082;51.786;6.018;2023-11-19T11:44:57;438.90;;;411.80;;
23802;SDS011;12082;51.786;6.018;2023-11-19T11:47:23;464.70;;;435.67;;
23802;SDS011;12082;51.786;6.018;2023-11-19T11:49:49;486.17;;;455.67;;
23802;SDS011;12082;51.786;6.018;2023-11-19T11:52:17;481.43;;;451.23;;
23802;SDS011;12082;51.786;6.018;2023-11-19T11:54:43;535.80;;;501.87;;
23802;SDS011;12082;51.786;6.018;2023-11-19T11:57:13;516.83;;;484.27;;
23802;SDS011;12082;51.786;6.018;2023-11-19T12:02:10;515.87;;;483.97;;
23802;SDS011;12082;51.786;6.018;2023-11-19T12:04:37;487.53;;;457.07;;
23802;SDS011;12082;51.786;6.018;2023-11-19T12:07:08;465.83;;;438.27;;
23802;SDS011;12082;51.786;6.018;2023-11-19T12:09:53;466.10;;;437.70;;
23802;SDS011;12082;51.786;6.018;2023-11-19T12:12:32;434.57;;;408.80;;
23802;SDS011;12082;51.786;6.018;2023-11-19T12:20:20;400.47;;;377.67;;
23802;SDS011;12082;51.786;6.018;2023-11-19T12:22:48;375.93;;;353.40;;
23802;SDS011;12082;51.786;6.018;2023-11-19T12:25:15;410.87;;;387.80;;
23802;SDS011;12082;51.786;6.018;2023-11-19T12:27:48;407.50;;;385.13;;
23802;SDS011;12082;51.786;6.018;2023-11-19T12:30:24;418.53;;;395.80;;
23802;SDS011;12082;51.786;6.018;2023-11-19T12:32:51;404.90;;;383.17;;
23802;SDS011;12082;51.786;6.018;2023-11-19T12:35:18;372.47;;;352.37;;
23802;SDS011;12082;51.786;6.018;2023-11-19T12:37:45;369.00;;;349.30;;
23802;SDS011;12082;51.786;6.018;2023-11-19T12:40:19;362.70;;;343.23;;
23802;SDS011;12082;51.786;6.018;2023-11-19T12:42:48;363.93;;;344.33;;
23802;SDS011;12082;51.786;6.018;2023-11-19T12:45:15;386.17;;;364.93;;
23802;SDS011;12082;51.786;6.018;2023-11-19T12:47:42;378.47;;;357.80;;
23802;SDS011;12082;51.786;6.018;2023-11-19T12:50:09;365.53;;;345.20;;
23802;SDS011;12082;51.786;6.018;2023-11-19T12:52:35;353.60;;;334.90;;
23802;SDS011;12082;51.786;6.018;2023-11-19T12:55:05;358.93;;;339.93;;
23802;SDS011;12082;51.786;6.018;2023-11-19T12:57:54;357.97;;;338.60;;
23802;SDS011;12082;51.786;6.018;2023-11-19T13:00:21;340.97;;;322.63;;
23802;SDS011;12082;51.786;6.018;2023-11-19T13:02:48;363.57;;;343.77;;
23802;SDS011;12082;51.786;6.018;2023-11-19T13:05:25;365.83;;;345.93;;
23802;SDS011;12082;51.786;6.018;2023-11-19T13:07:51;354.73;;;335.97;;
23802;SDS011;12082;51.786;6.018;2023-11-19T13:10:27;368.33;;;348.87;;
23802;SDS011;12082;51.786;6.018;2023-11-19T13:15:29;373.63;;;352.90;;
23802;SDS011;12082;51.786;6.018;2023-11-19T13:17:54;379.13;;;358.50;;
23802;SDS011;12082;51.786;6.018;2023-11-19T13:20:20;378.37;;;358.17;;
23802;SDS011;12082;51.786;6.018;2023-11-19T13:22:59;392.80;;;369.93;;
23802;SDS011;12082;51.786;6.018;2023-11-19T13:25:26;382.83;;;362.60;;
23802;SDS011;12082;51.786;6.018;2023-11-19T13:27:52;378.67;;;358.37;;
23802;SDS011;12082;51.786;6.018;2023-11-19T13:30:18;399.43;;;377.73;;
23802;SDS011;12082;51.786;6.018;2023-11-19T13:32:44;403.87;;;381.67;;
23802;SDS011;12082;51.786;6.018;2023-11-19T13:35:11;398.47;;;375.90;;
23802;SDS011;12082;51.786;6.018;2023-11-19T13:37:37;398.63;;;376.73;;
23802;SDS011;12082;51.786;6.018;2023-11-19T13:40:03;407.53;;;385.23;;
23802;SDS011;12082;51.786;6.018;2023-11-19T13:42:30;410.03;;;387.03;;
23802;SDS011;12082;51.786;6.018;2023-11-19T13:44:55;400.97;;;379.33;;
23802;SDS011;12082;51.786;6.018;2023-11-19T13:47:21;385.60;;;364.73;;
23802;SDS011;12082;51.786;6.018;2023-11-19T13:49:47;358.97;;;339.13;;
23802;SDS011;12082;51.786;6.018;2023-11-19T13:52:12;342.73;;;323.37;;
23802;SDS011;12082;51.786;6.018;2023-11-19T13:54:38;327.83;;;308.63;;
23802;SDS011;12082;51.786;6.018;2023-11-19T13:57:03;305.70;;;287.30;;
23802;SDS011;12082;51.786;6.018;2023-11-19T13:59:30;345.07;;;322.73;;
23802;SDS011;12082;51.786;6.018;2023-11-19T14:01:57;337.53;;;316.27;;
23802;SDS011;12082;51.786;6.018;2023-11-19T14:04:23;333.67;;;310.87;;
23802;SDS011;12082;51.786;6.018;2023-11-19T14:06:49;309.83;;;289.63;;
23802;SDS011;12082;51.786;6.018;2023-11-19T14:09:14;328.83;;;308.13;;
23802;SDS011;12082;51.786;6.018;2023-11-19T14:11:40;314.47;;;294.17;;
23802;SDS011;12082;51.786;6.018;2023-11-19T14:14:07;319.67;;;299.20;;
23802;SDS011;12082;51.786;6.018;2023-11-19T14:16:33;317.53;;;297.87;;
23802;SDS011;12082;51.786;6.018;2023-11-19T14:18:59;298.60;;;279.70;;
23802;SDS011;12082;51.786;6.018;2023-11-19T14:21:25;332.83;;;312.07;;
23802;SDS011;12082;51.786;6.018;2023-11-19T14:23:51;302.73;;;283.97;;
23802;SDS011;12082;51.786;6.018;2023-11-19T14:26:17;324.20;;;303.53;;